createdAt,value
2022-08-05T00:00:17.746Z,34.10
2022-08-05T00:02:51.584Z,35.10
2022-08-05T00:06:02.039Z,36.39
2022-08-05T00:08:32.912Z,36.99
2022-08-05T00:11:00.746Z,35.81
2022-08-05T00:13:39.237Z,37.60
2022-08-05T00:16:13.736Z,38.88
2022-08-05T00:18:48.413Z,39.34
2022-08-05T00:21:18.922Z,39.93
2022-08-05T00:24:05.066Z,40.19
2022-08-05T00:26:35.450Z,39.64
2022-08-05T00:29:02.515Z,39.41
2022-08-05T00:31:53.084Z,41.17
2022-08-05T00:34:54.967Z,40.98
2022-08-05T00:37:11.392Z,40.92
2022-08-05T00:39:57.163Z,42.37
2022-08-05T00:42:37.357Z,43.09
2022-08-05T00:45:08.768Z,43.16
2022-08-05T00:47:57.187Z,42.99
2022-08-05T00:50:26.020Z,42.97
2022-08-05T00:52:53.578Z,43.86
2022-08-05T00:55:23.422Z,43.36
2022-08-05T00:58:11.555Z,44.31
2022-08-05T01:00:39.649Z,44.50
2022-08-05T01:03:07.617Z,45.10
2022-08-05T01:05:35.305Z,44.90
2022-08-05T01:08:41.774Z,44.70
2022-08-05T01:10:59.503Z,46.62
2022-08-05T01:13:57.358Z,47.32
2022-08-05T01:16:57.091Z,47.90
2022-08-05T01:20:01.022Z,48.53
2022-08-05T01:23:23.393Z,48.31
2022-08-05T01:26:32.507Z,46.71
2022-08-05T01:29:10.994Z,47.89
2022-08-05T01:31:49.720Z,46.01
2022-08-05T01:34:42.867Z,44.31
2022-08-05T01:37:30.250Z,44.40
2022-08-05T01:40:02.585Z,43.00
2022-08-05T01:42:31.289Z,42.54
2022-08-05T01:45:02.326Z,41.90
2022-08-05T01:47:39.719Z,42.09
2022-08-05T01:50:17.703Z,41.83
2022-08-05T01:52:50.087Z,40.91
2022-08-05T01:55:22.307Z,41.59
2022-08-05T01:58:12.974Z,42.10
2022-08-05T02:00:45.443Z,41.21
2022-08-05T02:03:28.884Z,41.96
2022-08-05T02:06:03.604Z,41.30
2022-08-05T02:08:58.294Z,41.06
2022-08-05T02:11:33.503Z,41.58
2022-08-05T02:14:12.750Z,40.82
2022-08-05T02:17:00.104Z,40.04
2022-08-05T02:19:27.455Z,42.03
2022-08-05T02:22:26.604Z,40.68
2022-08-05T02:25:08.537Z,40.15
2022-08-05T02:27:58.389Z,41.29
2022-08-05T02:30:35.188Z,42.15
2022-08-05T02:33:04.744Z,42.28
2022-08-05T02:35:37.822Z,41.63
2022-08-05T02:38:12.453Z,41.68
2022-08-05T02:40:47.599Z,41.93
2022-08-05T02:43:16.844Z,41.80
2022-08-05T02:45:52.912Z,41.98
2022-08-05T02:48:29.022Z,41.57
2022-08-05T02:51:02.604Z,43.79
2022-08-05T02:53:39.312Z,44.58
2022-08-05T02:56:15.942Z,45.64
2022-08-05T02:58:51.293Z,44.46
2022-08-05T03:01:25.029Z,44.76
2022-08-05T03:04:02.934Z,42.38
2022-08-05T03:06:56.735Z,42.95
2022-08-05T03:09:36.039Z,43.83
2022-08-05T03:12:06.248Z,42.54
2022-08-05T03:14:35.373Z,43.34
2022-08-05T03:17:12.865Z,44.79
2022-08-05T03:19:39.809Z,43.32
2022-08-05T03:22:16.277Z,42.88
2022-08-05T03:24:49.590Z,42.65
2022-08-05T03:27:19.650Z,43.32
2022-08-05T03:30:07.250Z,43.21
2022-08-05T03:32:34.798Z,43.23
2022-08-05T03:35:06.146Z,42.69
2022-08-05T03:37:45.961Z,44.63
2022-08-05T03:40:14.665Z,45.43
2022-08-05T03:42:51.944Z,43.84
2022-08-05T03:45:21.626Z,44.82
2022-08-05T03:47:49.423Z,43.08
2022-08-05T03:50:16.442Z,44.26
2022-08-05T03:55:51.627Z,44.78
2022-08-05T03:56:17.201Z,45.71
2022-08-05T03:58:53.446Z,46.31
2022-08-05T04:01:22.794Z,45.49
2022-08-05T04:04:09.196Z,46.29
2022-08-05T04:06:38.364Z,45.47
2022-08-05T04:09:20.223Z,45.77
2022-08-05T04:11:53.455Z,46.68
2022-08-05T04:14:29.949Z,48.26
2022-08-05T04:16:59.994Z,52.03
2022-08-05T04:19:29.578Z,52.24
2022-08-05T04:22:10.163Z,51.83
2022-08-05T04:24:52.978Z,52.39
2022-08-05T04:27:33.320Z,55.30
2022-08-05T04:30:09.460Z,53.36
2022-08-05T04:32:36.870Z,55.75
2022-08-05T04:35:05.857Z,54.36
2022-08-05T04:38:01.232Z,57.30
2022-08-05T04:40:20.368Z,56.46
2022-08-05T04:42:47.364Z,57.75
2022-08-05T04:45:31.140Z,57.55
2022-08-05T04:48:16.313Z,56.79
2022-08-05T04:51:03.698Z,56.69
2022-08-05T04:53:36.136Z,55.90
2022-08-05T04:56:33.983Z,57.38
2022-08-05T04:58:56.648Z,57.05
2022-08-05T05:02:06.396Z,59.13
2022-08-05T05:04:10.872Z,57.65
2022-08-05T05:06:44.287Z,56.88
2022-08-05T05:09:17.312Z,58.99
2022-08-05T05:11:55.616Z,58.54
2022-08-05T05:14:27.691Z,60.12
2022-08-05T05:17:03.329Z,60.07
2022-08-05T05:19:37.249Z,57.79
2022-08-05T05:22:23.796Z,55.88
2022-08-05T05:24:58.536Z,55.64
2022-08-05T05:27:44.969Z,55.68
2022-08-05T05:30:30.802Z,55.05
2022-08-05T05:33:03.492Z,54.36
2022-08-05T05:35:39.579Z,54.46
2022-08-05T05:38:13.726Z,54.32
2022-08-05T05:40:49.492Z,54.93
2022-08-05T05:43:27.614Z,54.08
2022-08-05T05:46:12.248Z,54.07
2022-08-05T05:48:44.464Z,54.04
2022-08-05T05:51:15.549Z,54.02
2022-08-05T05:53:57.921Z,54.25
2022-08-05T05:56:33.110Z,54.67
2022-08-05T05:59:07.723Z,54.78
2022-08-05T06:01:53.854Z,54.59
2022-08-05T06:04:25.079Z,55.08
2022-08-05T06:06:52.211Z,54.15
2022-08-05T06:09:25.703Z,55.14
2022-08-05T06:12:02.907Z,54.30
2022-08-05T06:14:34.881Z,54.97
2022-08-05T06:17:22.109Z,54.17
2022-08-05T06:19:57.150Z,53.87
2022-08-05T06:22:34.031Z,54.32
2022-08-05T06:25:24.233Z,56.54
2022-08-05T06:28:10.410Z,56.69
2022-08-05T06:30:39.191Z,55.81
2022-08-05T06:33:09.956Z,60.73
2022-08-05T06:36:05.677Z,60.61
2022-08-05T06:38:36.283Z,59.74
2022-08-05T06:41:05.494Z,60.76
2022-08-05T06:43:58.298Z,59.26
2022-08-05T06:46:23.944Z,59.84
2022-08-05T06:48:59.736Z,58.09
2022-08-05T06:51:29.553Z,57.54
2022-08-05T06:54:02.923Z,58.13
2022-08-05T06:56:34.380Z,58.63
2022-08-05T06:59:03.181Z,56.76
2022-08-05T07:01:32.650Z,56.59
2022-08-05T07:04:03.291Z,56.99
2022-08-05T07:06:30.465Z,56.28
2022-08-05T07:09:04.155Z,56.65
2022-08-05T07:11:41.263Z,56.23
2022-08-05T07:14:30.283Z,55.95
2022-08-05T07:17:59.724Z,56.03
2022-08-05T07:22:42.043Z,55.20
2022-08-05T07:25:22.870Z,54.99
2022-08-05T07:28:05.361Z,54.51
2022-08-05T07:30:38.752Z,56.03
2022-08-05T07:33:15.910Z,55.48
2022-08-05T07:36:04.400Z,55.71
2022-08-05T07:38:42.779Z,56.20
2022-08-05T07:42:08.710Z,55.86
2022-08-05T07:44:18.750Z,55.82
2022-08-05T07:46:49.628Z,55.28
2022-08-05T07:49:18.663Z,54.52
2022-08-05T07:51:53.452Z,54.52
2022-08-05T07:54:31.391Z,54.32
2022-08-05T07:57:17.891Z,53.83
2022-08-05T07:59:49.507Z,53.99
2022-08-05T08:02:17.998Z,53.04
2022-08-05T08:04:49.604Z,52.56
2022-08-05T08:07:22.396Z,52.12
2022-08-05T08:09:54.980Z,52.18
2022-08-05T08:12:37.143Z,51.80
2022-08-05T08:15:15.456Z,52.14
2022-08-05T08:17:49.921Z,51.71
2022-08-05T08:21:00.666Z,50.94
2022-08-05T08:24:03.224Z,50.58
2022-08-05T08:26:00.740Z,50.54
2022-08-05T08:28:36.293Z,50.21
2022-08-05T08:31:10.026Z,50.53
2022-08-05T08:33:42.183Z,51.00
2022-08-05T08:36:38.898Z,50.47
2022-08-05T08:38:58.237Z,50.49
2022-08-05T08:41:50.697Z,50.21
2022-08-05T08:45:20.709Z,50.11
2022-08-05T08:47:47.576Z,49.91
2022-08-05T08:50:14.636Z,50.24
2022-08-05T08:52:53.858Z,49.06
2022-08-05T08:56:03.077Z,48.71
2022-08-05T08:58:13.191Z,48.90
2022-08-05T09:00:42.644Z,48.48
2022-08-05T09:03:11.619Z,48.59
2022-08-05T09:06:09.071Z,48.88
2022-08-05T09:08:26.586Z,48.77
2022-08-05T09:10:54.575Z,48.44
2022-08-05T09:13:23.610Z,48.63
2022-08-05T09:15:52.272Z,48.43
2022-08-05T09:18:19.906Z,48.16
2022-08-05T09:20:47.094Z,47.80
2022-08-05T09:23:21.569Z,47.92
2022-08-05T09:26:05.818Z,47.12
2022-08-05T09:28:36.769Z,47.05
2022-08-05T09:31:43.805Z,47.01
2022-08-05T09:34:11.626Z,46.53
2022-08-05T09:36:59.741Z,46.45
2022-08-05T09:39:41.649Z,46.85
2022-08-05T09:42:24.177Z,46.18
2022-08-05T09:44:57.400Z,45.41
2022-08-05T09:47:35.184Z,44.94
2022-08-05T09:50:37.780Z,44.60
2022-08-05T09:53:05.950Z,44.06
2022-08-05T09:55:57.571Z,44.01
2022-08-05T09:58:24.828Z,43.57
2022-08-05T10:01:15.133Z,43.21
2022-08-05T10:04:01.979Z,42.44
2022-08-05T10:06:32.099Z,42.65
2022-08-05T10:09:27.509Z,42.08
2022-08-05T10:12:30.629Z,42.83
2022-08-05T10:15:34.309Z,42.52
2022-08-05T10:18:14.602Z,41.86
2022-08-05T10:21:00.051Z,41.98
2022-08-05T10:23:59.467Z,42.25
2022-08-05T10:26:31.724Z,41.24
2022-08-05T10:29:12.795Z,42.34
2022-08-05T10:32:53.045Z,42.49
2022-08-05T10:34:30.033Z,41.04
2022-08-05T10:36:59.207Z,41.30
2022-08-05T10:40:03.447Z,39.68
2022-08-05T10:42:33.837Z,39.14
2022-08-05T10:45:21.195Z,39.14
2022-08-05T10:48:27.575Z,37.15
2022-08-05T10:51:21.913Z,37.61
2022-08-05T10:53:55.766Z,38.55
2022-08-05T10:56:45.415Z,37.62
2022-08-05T11:00:04.122Z,37.85
2022-08-05T11:02:37.847Z,38.60
2022-08-05T11:05:07.321Z,38.16
2022-08-05T11:08:22.190Z,37.20
2022-08-05T11:11:00.876Z,39.23
2022-08-05T11:13:54.734Z,37.23
2022-08-05T11:16:47.713Z,37.60
2022-08-05T11:20:11.435Z,36.10
2022-08-05T11:22:44.722Z,37.39
2022-08-05T11:26:04.109Z,36.44
2022-08-05T11:28:33.695Z,37.26
2022-08-05T11:31:06.470Z,36.85
2022-08-05T11:33:48.924Z,36.68
2022-08-05T11:36:42.806Z,36.11
2022-08-05T11:39:12.079Z,36.12
2022-08-05T11:42:01.601Z,35.95
2022-08-05T11:44:52.705Z,35.67
2022-08-05T11:47:49.011Z,36.03
2022-08-05T11:50:14.127Z,35.82
2022-08-05T11:52:44.113Z,35.32
2022-08-05T11:55:13.714Z,35.74
2022-08-05T11:58:08.335Z,34.90
2022-08-05T12:00:38.036Z,34.84
2022-08-05T12:03:29.177Z,35.92
2022-08-05T12:06:01.683Z,35.51
2022-08-05T12:08:31.703Z,35.06
2022-08-05T12:11:05.894Z,35.76
2022-08-05T12:13:49.376Z,35.18
2022-08-05T12:16:19.475Z,35.13
2022-08-05T12:18:52.316Z,34.56
2022-08-05T12:21:29.828Z,35.86
2022-08-05T12:24:07.056Z,35.88
2022-08-05T12:26:50.113Z,35.22
2022-08-05T12:29:26.238Z,36.03
2022-08-05T12:32:02.097Z,35.71
2022-08-05T12:34:35.840Z,36.39
2022-08-05T12:37:16.956Z,36.39
2022-08-05T12:39:51.374Z,36.09
2022-08-05T12:42:21.167Z,36.21
2022-08-05T12:44:48.549Z,36.37
2022-08-05T12:47:30.483Z,36.21
2022-08-05T12:50:03.936Z,36.56
2022-08-05T12:52:41.787Z,36.74
2022-08-05T12:55:28.588Z,36.62
2022-08-05T12:58:49.054Z,37.03
2022-08-05T13:02:03.964Z,36.82
2022-08-05T13:03:38.965Z,36.36
2022-08-05T13:06:17.288Z,36.49
2022-08-05T13:08:52.117Z,36.81
2022-08-05T13:11:59.852Z,36.29
2022-08-05T13:14:36.171Z,36.34
2022-08-05T13:17:32.052Z,36.15
2022-08-05T13:20:20.376Z,36.53
2022-08-05T13:22:52.995Z,36.78
2022-08-05T13:25:22.193Z,37.13
2022-08-05T13:28:07.863Z,37.04
2022-08-05T13:30:38.963Z,37.33
2022-08-05T13:33:06.270Z,37.24
2022-08-05T13:35:47.229Z,37.28
2022-08-05T13:38:28.129Z,37.88
2022-08-05T13:41:00.112Z,37.77
2022-08-05T13:43:44.046Z,37.86
2022-08-05T13:46:16.111Z,38.00
2022-08-05T13:48:57.793Z,38.37
2022-08-05T13:51:40.184Z,38.32
2022-08-05T13:54:11.939Z,38.29
2022-08-05T13:56:45.497Z,38.12
2022-08-05T13:59:27.348Z,38.46
2022-08-05T14:02:00.460Z,38.85
2022-08-05T14:04:56.263Z,38.97
2022-08-05T14:08:00.367Z,39.14
2022-08-05T14:10:28.898Z,38.78
2022-08-05T14:12:59.365Z,39.06
2022-08-05T14:16:04.633Z,38.67
2022-08-05T14:18:18.168Z,39.30
2022-08-05T14:20:54.383Z,38.97
2022-08-05T14:23:24.551Z,39.44
2022-08-05T14:25:57.949Z,39.56
2022-08-05T14:28:30.614Z,39.13
2022-08-05T14:30:59.405Z,39.08
2022-08-05T14:33:27.930Z,39.40
2022-08-05T14:36:14.859Z,39.07
2022-08-05T14:38:42.403Z,38.77
2022-08-05T14:41:11.699Z,38.49
2022-08-05T14:44:00.194Z,38.72
2022-08-05T14:46:29.794Z,38.58
2022-08-05T14:49:06.734Z,38.01
2022-08-05T14:51:37.630Z,37.81
2022-08-05T14:54:28.097Z,37.68
2022-08-05T14:56:54.809Z,37.98
2022-08-05T14:59:22.178Z,38.37
2022-08-05T15:01:50.214Z,38.33
2022-08-05T15:04:22.444Z,38.31
2022-08-05T15:06:51.439Z,38.67
2022-08-05T15:09:51.236Z,38.97
2022-08-05T15:12:08.884Z,38.45
2022-08-05T15:14:42.200Z,38.79
2022-08-05T15:17:45.656Z,38.95
2022-08-05T15:20:06.173Z,38.59
2022-08-05T15:22:35.918Z,38.07
2022-08-05T15:25:13.607Z,38.51
2022-08-05T15:30:11.313Z,39.00
2022-08-05T15:34:04.283Z,39.55
2022-08-05T15:35:11.609Z,39.37
2022-08-05T15:41:04.523Z,39.52
2022-08-05T15:44:28.043Z,40.53
2022-08-05T15:47:32.397Z,40.61
2022-08-05T15:50:04.027Z,40.86
2022-08-05T15:52:52.901Z,42.17
2022-08-05T15:55:19.991Z,42.82
2022-08-05T15:57:52.669Z,43.46
2022-08-05T16:00:30.483Z,44.48
2022-08-05T16:03:08.176Z,45.19
2022-08-05T16:05:35.517Z,45.32
2022-08-05T16:08:06.076Z,45.75
2022-08-05T16:10:33.085Z,45.83
2022-08-05T16:13:00.061Z,45.27
2022-08-05T16:15:32.303Z,45.93
2022-08-05T16:18:00.876Z,46.01
2022-08-05T16:20:31.569Z,46.42
2022-08-05T16:22:59.619Z,47.02
2022-08-05T16:25:33.930Z,46.64
2022-08-05T16:28:10.453Z,47.68
2022-08-05T16:30:37.776Z,47.36
2022-08-05T16:33:04.855Z,47.37
2022-08-05T16:35:33.668Z,47.51
2022-08-05T16:38:23.809Z,47.58
2022-08-05T16:40:59.879Z,47.59
2022-08-05T16:43:35.535Z,48.15
2022-08-05T16:46:12.688Z,48.07
2022-08-05T16:48:52.075Z,47.89
2022-08-05T16:51:23.244Z,48.56
2022-08-05T16:54:04.956Z,48.42
2022-08-05T16:56:36.848Z,47.86
2022-08-05T16:59:14.689Z,47.81
2022-08-05T17:01:54.718Z,48.11
2022-08-05T17:04:28.264Z,48.61
2022-08-05T17:07:01.066Z,48.33
2022-08-05T17:09:57.678Z,48.51
2022-08-05T17:12:18.447Z,48.70
2022-08-05T17:14:49.887Z,48.50
2022-08-05T17:17:17.015Z,47.79
2022-08-05T17:19:46.772Z,47.33
2022-08-05T17:22:25.576Z,47.14
2022-08-05T17:25:00.115Z,46.55
2022-08-05T17:27:33.514Z,46.28
2022-08-05T17:30:11.913Z,46.44
2022-08-05T17:32:46.145Z,46.58
2022-08-05T17:35:15.693Z,47.08
2022-08-05T17:37:48.578Z,46.52
2022-08-05T17:40:17.621Z,46.88
2022-08-05T17:42:51.111Z,46.77
2022-08-05T17:45:22.144Z,47.31
2022-08-05T17:47:55.997Z,46.86
2022-08-05T17:50:30.343Z,48.01
2022-08-05T17:53:00.784Z,48.05
2022-08-05T17:55:37.618Z,48.15
2022-08-05T17:58:12.225Z,48.55
2022-08-05T18:00:47.109Z,48.51
2022-08-05T18:03:56.315Z,48.63
2022-08-05T18:06:12.254Z,48.77
2022-08-05T18:08:45.726Z,47.99
2022-08-05T18:11:24.841Z,48.24
2022-08-05T18:14:03.429Z,49.11
2022-08-05T18:16:32.698Z,50.07
2022-08-05T18:18:59.677Z,49.29
2022-08-05T18:21:28.109Z,50.85
2022-08-05T18:24:14.457Z,50.15
2022-08-05T18:26:41.772Z,50.93
2022-08-05T18:29:10.843Z,50.64
2022-08-05T18:31:38.368Z,50.75
2022-08-05T18:34:12.625Z,50.69
2022-08-05T18:36:39.885Z,51.07
2022-08-05T18:39:09.783Z,51.06
2022-08-05T18:42:04.764Z,50.60
2022-08-05T18:44:35.539Z,51.29
2022-08-05T18:47:18.828Z,50.86
2022-08-05T18:50:10.607Z,51.26
2022-08-05T18:52:41.719Z,51.61
2022-08-05T18:55:19.589Z,51.82
2022-08-05T18:57:52.800Z,51.28
2022-08-05T19:00:29.246Z,50.35
2022-08-05T19:03:04.157Z,50.58
2022-08-05T19:06:12.306Z,51.11
2022-08-05T19:08:21.646Z,50.65
2022-08-05T19:10:49.952Z,50.25
2022-08-05T19:13:18.161Z,49.75
2022-08-05T19:15:57.819Z,50.83
2022-08-05T19:18:27.924Z,50.45
2022-08-05T19:20:55.729Z,51.17
2022-08-05T19:24:07.163Z,51.10
2022-08-05T19:26:11.191Z,51.46
2022-08-05T19:28:43.690Z,51.98
2022-08-05T19:31:13.276Z,50.98
2022-08-05T19:33:47.948Z,51.70
2022-08-05T19:36:23.964Z,50.90
2022-08-05T19:38:52.821Z,50.74
2022-08-05T19:41:22.208Z,50.81
2022-08-05T19:44:13.268Z,51.01
2022-08-05T19:46:43.705Z,50.52
2022-08-05T19:49:16.412Z,50.25
2022-08-05T19:52:08.924Z,49.75
2022-08-05T19:54:31.930Z,49.46
2022-08-05T19:57:09.167Z,49.29
2022-08-05T19:59:59.369Z,49.29
2022-08-05T20:02:28.002Z,49.72
2022-08-05T20:04:58.422Z,49.36
2022-08-05T20:07:47.529Z,49.56
2022-08-05T20:10:16.933Z,49.54
2022-08-05T20:12:47.819Z,50.19
2022-08-05T20:15:48.077Z,49.50
2022-08-05T20:18:10.723Z,49.88
2022-08-05T20:20:56.730Z,49.40
2022-08-05T20:23:40.526Z,49.67
2022-08-05T20:26:15.203Z,50.34
2022-08-05T20:28:50.508Z,49.50
2022-08-05T20:31:21.653Z,49.37
2022-08-05T20:33:51.019Z,49.54
2022-08-05T20:36:18.976Z,49.95
2022-08-05T20:38:53.294Z,49.95
2022-08-05T20:41:27.553Z,49.92
2022-08-05T20:44:19.387Z,49.76
2022-08-05T20:47:03.231Z,50.11
2022-08-05T20:49:37.920Z,50.14
2022-08-05T20:52:08.493Z,50.31
2022-08-05T20:54:55.391Z,50.18
2022-08-05T20:57:41.959Z,49.84
2022-08-05T21:00:35.103Z,49.51
2022-08-05T21:03:04.486Z,49.35
2022-08-05T21:05:47.526Z,49.04
2022-08-05T21:08:26.890Z,49.16
2022-08-05T21:11:12.851Z,49.23
2022-08-05T21:13:59.455Z,49.18
2022-08-05T21:16:29.904Z,48.82
2022-08-05T21:19:01.961Z,48.81
2022-08-05T21:21:39.670Z,48.97
2022-08-05T21:24:17.266Z,48.36
2022-08-05T21:26:53.543Z,48.16
2022-08-05T21:29:31.982Z,48.23
2022-08-05T21:32:03.468Z,48.14
2022-08-05T21:34:31.617Z,48.35
2022-08-05T21:37:00.275Z,48.01
2022-08-05T21:39:28.014Z,47.82
2022-08-05T21:42:01.857Z,47.84
2022-08-05T21:44:31.037Z,47.46
2022-08-05T21:46:59.768Z,47.41
2022-08-05T21:49:48.115Z,47.71
2022-08-05T21:52:27.549Z,47.10
2022-08-05T21:54:57.040Z,47.57
2022-08-05T21:57:32.536Z,49.31
2022-08-05T22:00:05.942Z,48.68
2022-08-05T22:02:41.719Z,48.76
2022-08-05T22:05:11.222Z,48.36
2022-08-05T22:07:59.002Z,48.20
2022-08-05T22:10:29.651Z,48.18
2022-08-05T22:14:06.191Z,47.88
2022-08-05T22:16:00.411Z,47.23
2022-08-05T22:18:34.437Z,46.89
2022-08-05T22:21:04.766Z,47.04
2022-08-05T22:24:03.171Z,46.79
2022-08-05T22:26:54.159Z,46.49
2022-08-05T22:29:26.150Z,46.60
2022-08-05T22:31:55.337Z,46.67
2022-08-05T22:34:28.932Z,46.52
2022-08-05T22:36:58.512Z,46.42
2022-08-05T22:39:32.747Z,46.51
2022-08-05T22:42:12.715Z,46.34
2022-08-05T22:44:53.475Z,46.37
2022-08-05T22:47:29.464Z,46.45
2022-08-05T22:50:20.258Z,46.65
2022-08-05T22:52:49.833Z,46.80
2022-08-05T22:55:21.460Z,46.86
2022-08-05T22:57:53.055Z,46.50
2022-08-05T23:00:22.151Z,46.94
2022-08-05T23:02:52.019Z,47.16
2022-08-05T23:05:22.000Z,46.88
2022-08-05T23:07:50.855Z,47.24
2022-08-05T23:10:20.666Z,46.71
2022-08-05T23:12:55.121Z,47.12
2022-08-05T23:15:28.990Z,46.41
2022-08-05T23:18:00.761Z,46.93
2022-08-05T23:20:32.413Z,46.60
2022-08-05T23:23:00.213Z,46.59
2022-08-05T23:25:52.477Z,46.76
2022-08-05T23:28:20.956Z,46.50
2022-08-05T23:30:53.298Z,46.95
2022-08-05T23:33:26.487Z,46.51
2022-08-05T23:36:10.453Z,46.72
2022-08-05T23:38:38.318Z,46.58
2022-08-05T23:41:05.507Z,46.19
2022-08-05T23:43:37.195Z,46.31
2022-08-05T23:46:21.966Z,46.48
2022-08-05T23:49:01.228Z,46.14
2022-08-05T23:51:54.343Z,46.60
2022-08-05T23:54:33.954Z,46.58
2022-08-05T23:57:04.782Z,46.58
